2007/1/14 日曜日

リベンジ。

今日は先日(6日)の「遊覧飛行」のリベンジで羽田に来ています。今日は飛んでくれるでしょう〜。

ちなみに現在の八丈島と大島の天候は次のとおりです。
RJTH 140000Z 31012KT 270V340 9999 BKN045 11/M00 Q1021
RJTO 140000Z 04014KT 9999 BKN045 09/M04 Q1021

今日の予定は、
HND ANA823 HAC ANA850 OIM ANA849 HAC ANA826 HND
です。

No Tags

  • No Related Posts
  • Filed under: Mileage — ◇敏郎◇ @ 9:30:55

    HTML convert time: 0.224 sec. Powered by WordPress ME